Terminal Aerodrome Forecast
Issued by NWS

Home | Current Version | Previous Version | Text Only | Print | Product List | Glossary On
Versions: 1 2 3 4 5 6 7 8 9 10 11 12 13 14 15 16 17 18 19 20 21 22 23 24 25 26 27 28 29 30 31 32 33 34 35 36 37 38 39 40 41 42 43 44 45 46
000
FTUS45 KGJT 272339
TAFEGE
TAF
KEGE 272339Z 2800/2824 23020G26KT P6SM VCSH BKN045 OVC060
     FM280200 24013G21KT 6SM -SHSN OVC035 WS020/24040KT
      TEMPO 2803/2807 3SM -SN BR OVC020
     FM280700 24008KT 2SM -SN BR OVC015
     FM281800 25006KT 5SM -SN BR OVC025
     FM282200 26009KT P6SM BKN035
      AMD LTD TO CLD VIS AND WIND 2805/2813=

USA.gov is the U.S. government's official web portal to all federal, state and local government web resources and services.